createdAt,value
2023-03-27T00:02:16.594Z,11.90
2023-03-27T00:04:47.910Z,10.40
2023-03-27T00:07:21.247Z,15.60
2023-03-27T00:09:54.003Z,19.60
2023-03-27T00:12:35.635Z,18.30
2023-03-27T00:15:08.300Z,11.10
2023-03-27T00:17:34.711Z,11.80
2023-03-27T00:20:04.239Z,14.10
2023-03-27T00:22:30.855Z,13.70
2023-03-27T00:25:00.575Z,15.10
2023-03-27T00:27:32.396Z,13.30
2023-03-27T00:30:04.909Z,13.60
2023-03-27T00:34:29.314Z,12.20
2023-03-27T00:37:08.464Z,12.00
2023-03-27T00:39:37.696Z,13.80
2023-03-27T00:42:08.544Z,16.20
2023-03-27T00:44:40.802Z,11.90
2023-03-27T00:47:12.885Z,17.00
2023-03-27T00:49:44.132Z,15.90
2023-03-27T00:52:18.690Z,9.50
2023-03-27T00:54:47.942Z,16.90
2023-03-27T00:57:19.291Z,12.50
2023-03-27T00:59:52.551Z,10.70
2023-03-27T01:02:22.233Z,8.80
2023-03-27T01:04:53.482Z,14.70
2023-03-27T01:07:31.419Z,12.00
2023-03-27T01:10:04.525Z,12.60
2023-03-27T01:12:45.551Z,13.60
2023-03-27T01:15:18.726Z,9.60
2023-03-27T01:17:49.652Z,10.50
2023-03-27T01:20:27.428Z,10.70
2023-03-27T01:23:13.887Z,13.70
2023-03-27T01:25:45.826Z,9.70
2023-03-27T01:28:14.275Z,15.70
2023-03-27T01:30:50.085Z,8.30
2023-03-27T01:33:18.374Z,11.10
2023-03-27T01:35:49.219Z,10.20
2023-03-27T01:38:16.989Z,9.40
2023-03-27T01:40:50.936Z,9.40
2023-03-27T01:43:24.075Z,8.60
2023-03-27T01:45:55.560Z,11.70
2023-03-27T01:48:31.701Z,9.40
2023-03-27T01:51:02.764Z,6.70
2023-03-27T01:53:33.295Z,7.90
2023-03-27T01:56:04.575Z,4.90
2023-03-27T01:58:38.021Z,6.70
2023-03-27T02:01:06.968Z,10.90
2023-03-27T02:03:37.813Z,6.70
2023-03-27T02:06:11.073Z,5.40
2023-03-27T02:08:55.886Z,5.10
2023-03-27T02:11:25.007Z,7.30
2023-03-27T02:14:01.064Z,4.80
2023-03-27T02:16:33.958Z,6.00
2023-03-27T02:19:04.387Z,5.90
2023-03-27T02:21:32.532Z,6.10
2023-03-27T02:24:02.200Z,5.30
2023-03-27T02:26:30.472Z,5.30
2023-03-27T02:29:04.470Z,6.60
2023-03-27T02:31:44.257Z,4.30
2023-03-27T02:34:31.697Z,3.70
2023-03-27T02:37:09.394Z,6.20
2023-03-27T02:39:58.465Z,5.10
2023-03-27T02:42:45.473Z,4.90
2023-03-27T02:45:23.307Z,7.00
2023-03-27T02:47:56.682Z,3.90
2023-03-27T02:50:31.988Z,3.50
2023-03-27T02:53:02.199Z,3.50
2023-03-27T02:55:33.392Z,4.50
2023-03-27T02:58:06.494Z,3.50
2023-03-27T03:00:39.723Z,4.50
2023-03-27T03:03:10.756Z,2.50
2023-03-27T03:05:38.584Z,5.30
2023-03-27T03:08:11.589Z,4.60
2023-03-27T03:10:46.461Z,3.30
2023-03-27T03:13:18.137Z,3.00
2023-03-27T03:15:50.520Z,3.20
2023-03-27T03:18:19.229Z,3.30
2023-03-27T03:20:47.018Z,3.50
2023-03-27T03:23:14.803Z,4.90
2023-03-27T03:25:44.241Z,3.60
2023-03-27T03:28:13.142Z,3.00
2023-03-27T03:30:45.666Z,4.50
2023-03-27T03:33:14.365Z,2.50
2023-03-27T03:35:43.354Z,4.10
2023-03-27T03:38:11.309Z,5.00
2023-03-27T03:40:39.204Z,6.50
2023-03-27T03:43:07.058Z,3.40
2023-03-27T03:45:34.824Z,4.50
2023-03-27T03:48:02.699Z,2.30
2023-03-27T03:50:30.452Z,5.90
2023-03-27T03:52:58.268Z,5.60
2023-03-27T03:55:26.088Z,6.70
2023-03-27T03:57:53.889Z,3.00
2023-03-27T04:00:27.010Z,3.60
2023-03-27T04:02:54.944Z,5.10
2023-03-27T04:05:23.786Z,1.80
2023-03-27T04:07:51.643Z,3.10
2023-03-27T04:10:19.562Z,5.00
2023-03-27T04:12:48.637Z,5.00
2023-03-27T04:15:16.683Z,4.60
2023-03-27T04:17:44.944Z,3.70
2023-03-27T04:20:13.339Z,2.50
2023-03-27T04:22:46.809Z,5.30
2023-03-27T04:25:17.889Z,7.60
2023-03-27T04:27:45.706Z,4.30
2023-03-27T04:30:14.244Z,4.20
2023-03-27T04:32:42.507Z,4.00
2023-03-27T04:35:11.156Z,4.30
2023-03-27T04:37:40.476Z,3.80
2023-03-27T04:40:08.698Z,3.20
2023-03-27T04:42:45.052Z,2.90
2023-03-27T04:45:14.093Z,2.60
2023-03-27T04:47:42.794Z,3.60
2023-03-27T04:50:11.489Z,6.50
2023-03-27T04:52:39.324Z,6.00
2023-03-27T04:55:08.141Z,5.00
2023-03-27T04:57:36.046Z,1.60
2023-03-27T05:00:14.628Z,3.20
2023-03-27T05:02:43.181Z,3.70
2023-03-27T05:05:11.204Z,3.30
2023-03-27T05:07:39.277Z,3.70
2023-03-27T05:10:07.372Z,3.20
2023-03-27T05:12:35.158Z,2.90
2023-03-27T05:15:06.470Z,2.60
2023-03-27T05:17:34.350Z,1.70
2023-03-27T05:25:17.354Z,4.70
2023-03-27T05:27:46.073Z,3.70
2023-03-27T05:30:16.099Z,5.70
2023-03-27T05:32:45.009Z,5.80
2023-03-27T05:35:12.832Z,4.10
2023-03-27T05:37:40.781Z,4.40
2023-03-27T05:40:09.109Z,2.20
2023-03-27T05:42:42.191Z,2.40
2023-03-27T05:45:10.237Z,1.80
2023-03-27T05:47:45.523Z,5.40
2023-03-27T05:50:14.814Z,4.20
2023-03-27T05:52:43.188Z,4.30
2023-03-27T05:55:11.666Z,1.60
2023-03-27T05:57:40.184Z,2.50
2023-03-27T06:00:14.022Z,3.00
2023-03-27T06:02:45.171Z,2.00
2023-03-27T06:05:14.552Z,2.50
2023-03-27T06:07:43.671Z,2.30
2023-03-27T06:10:14.297Z,1.90
2023-03-27T06:12:43.433Z,1.40
2023-03-27T06:15:12.007Z,2.80
2023-03-27T06:17:40.815Z,6.40
2023-03-27T06:20:13.062Z,4.60
2023-03-27T06:22:48.769Z,1.80
2023-03-27T06:25:17.236Z,4.50
2023-03-27T06:27:47.711Z,2.60
2023-03-27T06:30:25.213Z,2.60
2023-03-27T06:32:54.769Z,3.20
2023-03-27T06:35:23.798Z,3.30
2023-03-27T06:37:51.948Z,3.60
2023-03-27T06:40:24.566Z,2.80
2023-03-27T06:42:56.989Z,4.90
2023-03-27T06:45:28.540Z,2.80
2023-03-27T06:48:12.277Z,3.40
2023-03-27T06:50:47.695Z,2.60
2023-03-27T06:55:49.546Z,2.30
2023-03-27T06:58:19.264Z,2.70
2023-03-27T07:00:49.830Z,1.40
2023-03-27T07:03:19.136Z,2.70
2023-03-27T07:05:49.074Z,4.20
2023-03-27T07:08:24.123Z,1.90
2023-03-27T07:11:10.675Z,2.60
2023-03-27T07:13:41.669Z,1.80
2023-03-27T07:16:12.550Z,1.50
2023-03-27T07:18:42.230Z,2.50
2023-03-27T07:21:10.631Z,3.40
2023-03-27T07:23:38.671Z,2.00
2023-03-27T07:26:06.840Z,3.40
2023-03-27T07:28:38.583Z,1.90
2023-03-27T07:31:16.509Z,1.90
2023-03-27T07:33:54.520Z,2.20
2023-03-27T07:36:22.548Z,1.90
2023-03-27T07:38:51.213Z,1.60
2023-03-27T07:41:19.674Z,1.70
2023-03-27T07:43:47.450Z,2.60
2023-03-27T07:46:15.538Z,4.90
2023-03-27T07:48:43.484Z,2.20
2023-03-27T07:51:14.152Z,3.30
2023-03-27T07:53:43.838Z,3.00
2023-03-27T07:56:11.679Z,2.00
2023-03-27T07:58:41.138Z,1.80
2023-03-27T08:01:09.207Z,1.90
2023-03-27T08:03:39.597Z,2.60
2023-03-27T08:06:08.791Z,1.20
2023-03-27T08:08:36.856Z,1.20
2023-03-27T08:11:06.248Z,2.00
2023-03-27T08:13:36.707Z,2.10
2023-03-27T08:16:06.096Z,4.10
2023-03-27T08:18:35.212Z,1.00
2023-03-27T08:27:33.313Z,1.60
2023-03-27T08:30:01.641Z,2.50
2023-03-27T08:32:29.554Z,1.60
2023-03-27T08:34:57.716Z,6.20
2023-03-27T08:37:26.026Z,1.30
2023-03-27T08:39:59.123Z,2.30
2023-03-27T08:42:38.374Z,1.80
2023-03-27T08:45:14.822Z,1.70
2023-03-27T08:47:46.537Z,1.50
2023-03-27T08:50:23.819Z,2.10
2023-03-27T08:52:51.872Z,1.30
2023-03-27T08:55:26.267Z,3.00
2023-03-27T08:57:55.085Z,0.90
2023-03-27T09:00:25.353Z,0.90
2023-03-27T09:03:13.668Z,1.90
2023-03-27T09:05:51.502Z,1.50
2023-03-27T09:08:38.593Z,1.40
2023-03-27T09:11:14.383Z,1.30
2023-03-27T09:13:45.359Z,4.70
2023-03-27T09:16:18.559Z,2.00
2023-03-27T09:19:01.858Z,4.50
2023-03-27T09:21:33.647Z,0.60
2023-03-27T09:24:05.854Z,0.90
2023-03-27T09:26:37.325Z,1.50
2023-03-27T09:29:19.904Z,0.90
2023-03-27T09:31:50.608Z,0.80
2023-03-27T09:34:24.720Z,1.50
2023-03-27T09:36:53.214Z,2.40
2023-03-27T09:39:25.517Z,2.10
2023-03-27T09:42:17.470Z,2.00
2023-03-27T09:44:50.372Z,2.30
2023-03-27T09:47:21.528Z,1.70
2023-03-27T09:49:51.751Z,2.70
2023-03-27T09:52:39.005Z,1.50
2023-03-27T09:55:27.231Z,1.50
2023-03-27T09:58:00.756Z,2.40
2023-03-27T10:00:31.557Z,4.20
2023-03-27T10:03:14.575Z,1.70
2023-03-27T10:05:45.271Z,2.40
2023-03-27T10:08:27.501Z,1.20
2023-03-27T10:10:57.902Z,1.10
2023-03-27T10:13:27.414Z,1.40
2023-03-27T10:16:04.649Z,2.20
2023-03-27T10:18:34.110Z,1.90
2023-03-27T10:21:07.017Z,2.00
2023-03-27T10:23:44.277Z,1.50
2023-03-27T10:26:15.308Z,1.20
2023-03-27T10:28:49.172Z,2.80
2023-03-27T10:31:38.201Z,1.50
2023-03-27T10:34:08.530Z,1.10
2023-03-27T10:36:41.211Z,1.30
2023-03-27T10:39:15.578Z,1.30
2023-03-27T10:41:47.705Z,1.50
2023-03-27T10:44:18.288Z,3.30
2023-03-27T10:46:46.797Z,1.40
2023-03-27T10:49:17.292Z,1.90
2023-03-27T10:51:46.897Z,2.60
2023-03-27T10:54:19.242Z,5.00
2023-03-27T10:56:59.024Z,2.20
2023-03-27T10:59:41.126Z,1.90
2023-03-27T11:02:16.881Z,2.30
2023-03-27T11:04:49.213Z,1.10
2023-03-27T11:07:46.706Z,1.70
2023-03-27T11:10:14.854Z,3.30
2023-03-27T11:12:45.737Z,2.30
2023-03-27T11:15:26.368Z,3.10
2023-03-27T11:18:09.071Z,2.60
2023-03-27T11:20:40.433Z,3.10
2023-03-27T11:23:16.954Z,1.90
2023-03-27T11:25:47.152Z,2.80
2023-03-27T11:28:28.324Z,3.50
2023-03-27T11:31:19.629Z,2.50
2023-03-27T11:33:48.365Z,2.00
2023-03-27T11:36:35.267Z,1.60
2023-03-27T11:39:06.682Z,3.70
2023-03-27T11:41:34.664Z,3.40
2023-03-27T11:44:02.612Z,1.80
2023-03-27T11:46:36.922Z,2.00
2023-03-27T11:49:15.293Z,2.70
2023-03-27T11:52:08.286Z,2.90
2023-03-27T11:54:36.156Z,2.00
2023-03-27T11:57:06.297Z,3.10
2023-03-27T11:59:40.515Z,2.00
2023-03-27T12:02:31.745Z,2.40
2023-03-27T12:05:20.265Z,2.50
2023-03-27T12:07:53.814Z,3.50
2023-03-27T12:10:28.401Z,2.50
2023-03-27T12:13:16.969Z,3.90
2023-03-27T12:15:57.380Z,3.50
2023-03-27T12:18:37.614Z,2.50
2023-03-27T12:21:10.742Z,1.20
2023-03-27T12:23:57.600Z,2.10
2023-03-27T12:26:31.831Z,2.10
2023-03-27T12:29:23.347Z,1.60
2023-03-27T12:31:55.610Z,1.10
2023-03-27T12:34:26.553Z,1.20
2023-03-27T12:36:54.727Z,1.80
2023-03-27T12:39:24.586Z,1.90
2023-03-27T12:41:53.131Z,2.30
2023-03-27T12:44:39.738Z,2.60
2023-03-27T12:47:23.180Z,4.00
2023-03-27T12:50:14.158Z,2.50
2023-03-27T12:52:44.565Z,3.60
2023-03-27T12:55:18.618Z,3.30
2023-03-27T12:57:47.137Z,3.20
2023-03-27T13:00:24.125Z,3.70
2023-03-27T13:02:58.888Z,2.20
2023-03-27T13:05:45.770Z,7.00
2023-03-27T13:08:13.826Z,3.00
2023-03-27T13:10:48.179Z,6.20
2023-03-27T13:13:35.091Z,6.40
2023-03-27T13:16:35.741Z,3.40
2023-03-27T13:19:23.152Z,2.50
2023-03-27T13:22:09.827Z,10.00
2023-03-27T13:24:40.651Z,1.50
2023-03-27T13:27:08.536Z,1.40
2023-03-27T13:29:36.441Z,2.50
2023-03-27T13:32:27.534Z,2.90
2023-03-27T13:35:25.952Z,3.80
2023-03-27T13:38:00.754Z,2.00
2023-03-27T13:40:36.734Z,3.60
2023-03-27T13:43:16.995Z,3.00
2023-03-27T13:45:47.428Z,3.20
2023-03-27T13:48:15.148Z,2.60
2023-03-27T13:50:52.186Z,3.70
2023-03-27T13:53:38.896Z,5.70
2023-03-27T13:56:25.477Z,2.10
2023-03-27T13:58:56.830Z,1.80
2023-03-27T14:01:34.262Z,2.30
2023-03-27T14:04:10.329Z,1.30
2023-03-27T14:06:52.325Z,2.80
2023-03-27T14:09:24.132Z,2.40
2023-03-27T14:12:14.344Z,2.90
2023-03-27T14:15:00.878Z,3.30
2023-03-27T14:17:36.813Z,2.00
2023-03-27T14:20:13.326Z,1.40
2023-03-27T14:22:47.853Z,2.50
2023-03-27T14:25:18.073Z,3.60
2023-03-27T14:27:49.646Z,1.90
2023-03-27T14:30:18.753Z,2.40
2023-03-27T14:32:49.209Z,5.10
2023-03-27T14:35:29.439Z,1.80
2023-03-27T14:38:00.309Z,3.20
2023-03-27T14:40:52.608Z,1.90
2023-03-27T14:43:21.581Z,3.40
2023-03-27T14:45:51.433Z,1.90
2023-03-27T14:48:19.488Z,3.20
2023-03-27T14:50:49.067Z,1.40
2023-03-27T14:53:22.274Z,3.50
2023-03-27T14:55:50.233Z,2.80
2023-03-27T14:58:30.159Z,2.20
2023-03-27T15:01:02.494Z,4.40
2023-03-27T15:03:35.450Z,1.20
2023-03-27T15:06:05.989Z,3.40
2023-03-27T15:08:36.925Z,1.00
2023-03-27T15:11:11.019Z,1.90
2023-03-27T15:13:39.059Z,2.60
2023-03-27T15:16:08.144Z,8.30
2023-03-27T15:18:39.035Z,1.40
2023-03-27T15:21:11.480Z,2.40
2023-03-27T15:23:42.576Z,1.60
2023-03-27T15:26:16.384Z,2.70
2023-03-27T15:28:51.413Z,2.20
2023-03-27T15:31:19.407Z,3.60
2023-03-27T15:33:53.618Z,1.10
2023-03-27T15:36:27.954Z,2.10
2023-03-27T15:39:00.613Z,1.90
2023-03-27T15:41:36.541Z,1.70
2023-03-27T15:44:06.470Z,1.90
2023-03-27T15:46:36.367Z,2.40
2023-03-27T15:49:23.258Z,1.60
2023-03-27T15:51:51.498Z,3.50
2023-03-27T15:54:35.252Z,2.10
2023-03-27T15:57:11.689Z,3.00
2023-03-27T15:59:52.368Z,2.60
2023-03-27T16:02:26.881Z,2.40
2023-03-27T16:04:57.300Z,0.90
2023-03-27T16:07:32.872Z,1.10
2023-03-27T16:10:02.696Z,5.50
2023-03-27T16:12:51.172Z,2.20
2023-03-27T16:15:29.502Z,2.50
2023-03-27T16:17:58.921Z,2.70
2023-03-27T16:20:26.901Z,2.10
2023-03-27T16:22:55.101Z,2.90
2023-03-27T16:25:23.008Z,2.60
2023-03-27T16:27:54.890Z,5.20
2023-03-27T16:30:26.764Z,2.80
2023-03-27T16:32:54.933Z,1.90
2023-03-27T16:35:23.504Z,2.60
2023-03-27T16:37:52.128Z,2.80
2023-03-27T16:40:20.511Z,2.70
2023-03-27T16:42:48.818Z,2.60
2023-03-27T16:45:16.829Z,6.20
2023-03-27T16:47:47.151Z,5.10
2023-03-27T16:50:18.697Z,1.70
2023-03-27T16:52:46.764Z,3.40
2023-03-27T16:55:15.663Z,4.60
2023-03-27T16:57:43.617Z,5.00
2023-03-27T17:00:12.354Z,5.50
2023-03-27T17:02:41.415Z,5.40
2023-03-27T17:05:14.839Z,5.50
2023-03-27T17:07:44.101Z,3.80
2023-03-27T17:10:14.598Z,3.20
2023-03-27T17:12:42.691Z,3.00
2023-03-27T17:15:10.776Z,4.90
2023-03-27T17:17:41.805Z,4.80
2023-03-27T17:20:10.597Z,5.80
2023-03-27T17:22:38.393Z,6.80
2023-03-27T17:25:06.597Z,7.70
2023-03-27T17:27:34.476Z,7.20
2023-03-27T17:30:02.577Z,4.60
2023-03-27T17:32:30.976Z,4.80
2023-03-27T17:34:59.120Z,4.00
2023-03-27T17:37:27.379Z,3.30
2023-03-27T17:39:55.355Z,2.80
2023-03-27T17:42:23.609Z,4.40
2023-03-27T17:44:51.434Z,4.80
2023-03-27T17:47:19.446Z,6.90
2023-03-27T17:49:47.242Z,7.20
2023-03-27T17:52:15.912Z,7.90
2023-03-27T17:54:43.686Z,7.90
2023-03-27T17:57:11.615Z,10.00
2023-03-27T17:59:39.554Z,14.80
2023-03-27T18:02:07.772Z,16.10
2023-03-27T18:04:36.548Z,17.10
2023-03-27T18:07:04.558Z,16.80
2023-03-27T18:09:32.489Z,13.20
2023-03-27T18:12:00.637Z,16.50
2023-03-27T18:14:28.787Z,13.80
2023-03-27T18:16:56.739Z,13.90
2023-03-27T18:19:25.338Z,22.10
2023-03-27T18:21:53.249Z,46.30
2023-03-27T18:24:21.681Z,64.70
2023-03-27T18:26:49.519Z,85.80
2023-03-27T18:29:17.404Z,105.90
2023-03-27T18:31:45.325Z,104.20
2023-03-27T18:34:14.067Z,53.90
2023-03-27T18:36:42.486Z,53.40
2023-03-27T18:39:11.463Z,84.50
2023-03-27T18:41:39.943Z,97.70
2023-03-27T18:44:07.753Z,123.50
2023-03-27T18:46:35.883Z,82.90
2023-03-27T18:49:13.585Z,58.50
2023-03-27T18:51:45.951Z,101.80
2023-03-27T18:54:13.950Z,74.40
2023-03-27T18:56:42.273Z,40.30
2023-03-27T18:59:10.248Z,33.10
2023-03-27T19:01:38.503Z,35.40
2023-03-27T19:04:06.624Z,28.70
2023-03-27T19:06:36.304Z,25.60
2023-03-27T19:09:07.646Z,21.10
2023-03-27T19:11:37.116Z,20.80
2023-03-27T19:14:05.904Z,18.00
2023-03-27T19:16:33.886Z,29.70
2023-03-27T19:19:02.273Z,31.90
2023-03-27T19:21:30.491Z,42.30
2023-03-27T19:23:59.902Z,63.50
2023-03-27T19:26:28.273Z,64.60
2023-03-27T19:28:56.452Z,61.20
2023-03-27T19:31:24.493Z,60.60
2023-03-27T19:33:53.436Z,51.00
2023-03-27T19:36:22.072Z,58.90
2023-03-27T19:38:49.921Z,46.70
2023-03-27T19:41:17.966Z,47.50
2023-03-27T19:43:46.470Z,46.90
2023-03-27T19:46:16.752Z,32.80
2023-03-27T19:48:45.762Z,31.10
2023-03-27T19:51:13.773Z,31.80
2023-03-27T19:53:42.353Z,34.10
2023-03-27T19:56:10.544Z,37.40
2023-03-27T19:58:38.490Z,32.40
2023-03-27T20:01:07.152Z,26.90
2023-03-27T20:03:38.610Z,26.90
2023-03-27T20:06:13.153Z,24.40
2023-03-27T20:08:42.543Z,33.60
2023-03-27T20:11:10.754Z,28.40
2023-03-27T20:13:52.961Z,26.80
2023-03-27T20:16:27.549Z,28.80
2023-03-27T20:19:06.406Z,28.40
2023-03-27T20:21:40.362Z,30.80
2023-03-27T20:24:10.384Z,30.40
2023-03-27T20:26:39.358Z,20.90
2023-03-27T20:29:08.499Z,23.80
2023-03-27T20:31:37.006Z,23.80
2023-03-27T20:34:07.029Z,26.70
2023-03-27T20:36:35.730Z,33.50
2023-03-27T20:39:07.776Z,39.30
2023-03-27T20:41:39.234Z,52.80
2023-03-27T20:44:15.550Z,57.50
2023-03-27T20:46:51.363Z,53.50
2023-03-27T20:51:59.930Z,54.10
2023-03-27T20:54:29.321Z,48.30
2023-03-27T20:59:13.637Z,32.00
2023-03-27T21:01:43.064Z,27.70
2023-03-27T21:04:13.452Z,28.00
2023-03-27T21:06:40.826Z,27.50
2023-03-27T21:09:08.844Z,30.70
2023-03-27T21:11:35.785Z,25.20
2023-03-27T21:14:02.690Z,21.50
2023-03-27T21:16:29.271Z,23.20
2023-03-27T21:18:55.884Z,20.10
2023-03-27T21:21:22.708Z,20.60
2023-03-27T21:23:50.917Z,19.80
2023-03-27T21:26:17.606Z,23.20
2023-03-27T21:28:44.291Z,23.90
2023-03-27T21:31:10.994Z,22.40
2023-03-27T21:33:37.974Z,17.50
2023-03-27T21:36:04.825Z,20.00
2023-03-27T21:38:31.908Z,19.50
2023-03-27T21:41:00.475Z,19.30
2023-03-27T21:43:26.931Z,17.10
2023-03-27T21:45:53.620Z,18.70
2023-03-27T21:48:20.282Z,17.40
2023-03-27T21:50:46.763Z,16.60
2023-03-27T21:53:13.481Z,19.30
2023-03-27T21:55:42.373Z,16.00
2023-03-27T21:58:09.040Z,15.50
2023-03-27T22:00:35.549Z,16.40
2023-03-27T22:03:02.418Z,13.00
2023-03-27T22:05:29.011Z,12.00
2023-03-27T22:07:57.010Z,12.30
2023-03-27T22:10:23.451Z,12.90
2023-03-27T22:12:50.383Z,11.70
2023-03-27T22:15:16.844Z,12.20
2023-03-27T22:17:43.373Z,12.80
2023-03-27T22:20:10.085Z,15.10
2023-03-27T22:22:36.743Z,8.20
2023-03-27T22:25:03.864Z,9.70
2023-03-27T22:27:30.777Z,9.00
2023-03-27T22:29:57.362Z,8.10
2023-03-27T22:32:23.955Z,8.40
2023-03-27T22:34:50.963Z,10.30
2023-03-27T22:37:19.037Z,10.40
2023-03-27T22:39:46.492Z,6.60
2023-03-27T22:42:13.103Z,6.80
2023-03-27T22:44:40.004Z,5.90
2023-03-27T22:47:06.403Z,6.40
2023-03-27T22:49:35.360Z,7.60
2023-03-27T22:52:03.028Z,7.50
2023-03-27T22:54:29.797Z,4.60
2023-03-27T22:56:58.370Z,7.80
2023-03-27T22:59:24.908Z,6.70
2023-03-27T23:01:51.920Z,5.40
2023-03-27T23:04:18.465Z,4.90
2023-03-27T23:06:49.094Z,6.40
2023-03-27T23:09:17.190Z,4.10
2023-03-27T23:11:43.746Z,5.20
2023-03-27T23:14:10.797Z,6.50
2023-03-27T23:16:37.212Z,3.50
2023-03-27T23:19:03.897Z,1.30
2023-03-27T23:21:30.563Z,1.80
2023-03-27T23:23:57.026Z,3.40
2023-03-27T23:26:23.475Z,4.60
2023-03-27T23:28:50.007Z,2.40
2023-03-27T23:31:17.728Z,2.60
2023-03-27T23:33:46.120Z,5.30
2023-03-27T23:36:19.591Z,3.10
2023-03-27T23:38:46.252Z,2.30
2023-03-27T23:41:14.116Z,3.00
2023-03-27T23:43:40.993Z,3.10
2023-03-27T23:46:09.727Z,5.10
2023-03-27T23:48:37.281Z,3.00
2023-03-27T23:51:03.778Z,3.80
2023-03-27T23:53:30.727Z,3.30
2023-03-27T23:55:58.408Z,4.80
2023-03-27T23:58:31.683Z,4.80
